Time;durP1;ratioP1;P1;durP2;ratioP2;P2;SDS_P1;SDS_P2;PMS_P1;PMS_P2;Temp;Humidity;BMP_temperature;BMP_pressure;BME280_temperature;BME280_humidity;BME280_pressure;Samples;Min_cycle;Max_cycle;Signal;HPM_P1;HPM_P2
2021/12/09 00:00:21;;;;;;;86.70;40.48;;;;;;;6.98;100.00;99343.02;1680366;85;21828;-83
2021/12/09 00:03:31;;;;;;;79.82;34.60;;;;;;;7.06;100.00;99341.62;1693059;85;21847;-84
2021/12/09 00:06:37;;;;;;;69.42;34.55;;;;;;;7.09;100.00;99351.61;1675798;85;21230;-85
2021/12/09 00:09:43;;;;;;;85.67;37.67;;;;;;;7.11;100.00;99348.22;1689029;85;21284;-85
2021/12/09 00:12:48;;;;;;;68.83;31.55;;;;;;;7.15;100.00;99349.56;1714450;83;21314;-84
2021/12/09 00:15:55;;;;;;;62.88;30.80;;;;;;;7.18;100.00;99357.34;1702562;84;21291;-84
2021/12/09 00:19:02;;;;;;;72.27;28.15;;;;;;;7.18;100.00;99353.78;1714338;83;21938;-85
2021/12/09 00:22:14;;;;;;;49.10;25.45;;;;;;;7.18;100.00;99353.27;1713791;83;21839;-84
2021/12/09 00:25:20;;;;;;;46.83;23.75;;;;;;;7.18;100.00;99360.58;1702223;84;21505;-84
2021/12/09 00:28:25;;;;;;;47.55;23.42;;;;;;;7.18;100.00;99362.78;1695263;83;21207;-85
2021/12/09 00:31:31;;;;;;;47.03;22.82;;;;;;;7.21;100.00;99367.03;1701720;84;21351;-85
2021/12/09 00:34:38;;;;;;;48.65;22.52;;;;;;;7.24;100.00;99365.81;1714291;83;21284;-85
2021/12/09 00:37:58;;;;;;;40.50;20.85;;;;;;;7.27;100.00;99367.67;1714390;83;21799;-84
2021/12/09 00:41:01;;;;;;;30.35;17.02;;;;;;;7.32;100.00;99367.98;1677040;85;21377;-84
2021/12/09 00:44:08;;;;;;;22.95;13.30;;;;;;;7.36;100.00;99373.41;1692932;85;21287;-83
2021/12/09 00:47:14;;;;;;;21.73;13.60;;;;;;;7.39;100.00;99377.14;1691592;85;21211;-83
2021/12/09 00:50:18;;;;;;;22.27;13.20;;;;;;;7.43;100.00;99379.84;1693102;85;21286;-85
2021/12/09 00:53:23;;;;;;;18.35;11.97;;;;;;;7.45;100.00;99374.21;1693052;85;21318;-84
2021/12/09 00:56:28;;;;;;;19.55;12.70;;;;;;;7.48;100.00;99380.67;1692869;85;21298;-84
2021/12/09 00:59:33;;;;;;;24.52;12.75;;;;;;;7.52;100.00;99367.53;1692975;85;21717;-84
2021/12/09 01:02:39;;;;;;;15.85;11.22;;;;;;;7.56;100.00;99368.35;1681436;85;21314;-84
2021/12/09 01:05:47;;;;;;;20.82;13.72;;;;;;;7.62;100.00;99372.22;1648935;86;21224;-84
2021/12/09 01:08:54;;;;;;;21.85;13.75;;;;;;;7.64;100.00;99370.19;1664360;86;21359;-84
2021/12/09 01:12:00;;;;;;;18.70;11.93;;;;;;;7.62;100.00;99369.50;1657231;85;21296;-84
2021/12/09 01:15:04;;;;;;;21.87;13.28;;;;;;;7.62;100.00;99378.54;1693025;85;21319;-84
2021/12/09 01:18:09;;;;;;;16.67;11.45;;;;;;;7.61;100.00;99377.34;1692876;85;21347;-84
2021/12/09 01:21:15;;;;;;;18.02;12.40;;;;;;;7.62;100.00;99376.30;1679401;85;21312;-84
2021/12/09 01:24:20;;;;;;;28.95;12.40;;;;;;;7.62;100.00;99382.63;1675800;85;21180;-84
2021/12/09 01:27:26;;;;;;;15.78;11.63;;;;;;;7.68;100.00;99381.05;1678575;85;21929;-84
2021/12/09 01:30:31;;;;;;;17.20;11.57;;;;;;;7.72;100.00;99381.02;1692882;85;21173;-84
2021/12/09 01:33:37;;;;;;;13.48;9.85;;;;;;;7.77;100.00;99386.77;1693036;85;21817;-84
2021/12/09 01:36:42;;;;;;;24.27;13.75;;;;;;;7.81;100.00;99390.83;1679350;85;21253;-84
2021/12/09 01:39:47;;;;;;;23.10;13.95;;;;;;;7.84;100.00;99391.81;1675324;85;21228;-83
2021/12/09 01:42:52;;;;;;;15.90;12.10;;;;;;;7.87;100.00;99393.34;1678134;85;21359;-83
2021/12/09 01:46:10;;;;;;;17.05;12.28;;;;;;;7.89;100.00;99391.27;1692716;85;21212;-84
2021/12/09 01:49:15;;;;;;;17.95;12.35;;;;;;;7.91;100.00;99400.97;1678118;85;21304;-84
2021/12/09 01:52:21;;;;;;;15.13;11.43;;;;;;;7.92;100.00;99402.66;1692906;85;21323;-84
2021/12/09 01:55:27;;;;;;;17.77;12.68;;;;;;;7.96;100.00;99403.66;1692968;85;21169;-84
2021/12/09 01:58:32;;;;;;;21.70;14.47;;;;;;;7.95;100.00;99410.95;1679352;85;21346;-84
2021/12/09 02:01:38;;;;;;;20.48;14.47;;;;;;;7.97;100.00;99409.44;1692783;85;21188;-84
2021/12/09 02:04:44;;;;;;;21.23;13.55;;;;;;;8.01;100.00;99407.53;1698696;84;21227;-84
2021/12/09 02:07:49;;;;;;;23.90;13.85;;;;;;;8.06;100.00;99412.43;1691128;85;21367;-82
2021/12/09 02:10:54;;;;;;;18.92;13.03;;;;;;;8.06;100.00;99416.52;1683390;84;21314;-82
2021/12/09 02:13:59;;;;;;;21.95;14.50;;;;;;;8.03;100.00;99417.71;1700170;84;21183;-82
2021/12/09 02:17:07;;;;;;;20.52;14.38;;;;;;;8.02;100.00;99408.38;1690716;85;21323;-83
2021/12/09 02:20:14;;;;;;;22.75;15.08;;;;;;;8.03;100.00;99408.70;1700460;84;21287;-82
2021/12/09 02:23:20;;;;;;;18.67;13.95;;;;;;;8.01;100.00;99413.49;1688704;85;21335;-84
2021/12/09 02:26:29;;;;;;;16.62;11.30;;;;;;;8.00;100.00;99415.86;1700091;84;21385;-84
2021/12/09 02:29:34;;;;;;;27.52;13.03;;;;;;;7.99;100.00;99422.34;1699992;84;21200;-84
2021/12/09 02:32:40;;;;;;;16.37;12.55;;;;;;;7.97;100.00;99426.62;1690781;85;21323;-83
2021/12/09 02:35:44;;;;;;;18.00;11.78;;;;;;;7.98;100.00;99426.09;1701645;84;21148;-83
2021/12/09 02:38:51;;;;;;;21.05;13.55;;;;;;;8.02;100.00;99430.16;1701794;84;21172;-84
2021/12/09 02:41:56;;;;;;;23.18;14.90;;;;;;;8.01;100.00;99432.56;1691858;85;21256;-84
2021/12/09 02:45:02;;;;;;;16.87;12.20;;;;;;;8.01;100.00;99438.84;1701689;84;21902;-83
2021/12/09 02:48:07;;;;;;;17.75;14.05;;;;;;;8.01;100.00;99442.09;1700506;84;21859;-84
2021/12/09 02:51:12;;;;;;;22.27;15.60;;;;;;;8.01;100.00;99447.02;1692147;85;21302;-84
2021/12/09 02:54:19;;;;;;;23.90;16.73;;;;;;;8.03;100.00;99455.84;1681600;84;21829;-83
2021/12/09 02:57:23;;;;;;;20.77;14.73;;;;;;;8.03;100.00;99461.80;1690004;85;21750;-84
2021/12/09 03:00:28;;;;;;;20.52;13.68;;;;;;;8.03;100.00;99469.97;1701732;84;21829;-84
2021/12/09 03:03:34;;;;;;;29.55;14.93;;;;;;;8.05;100.00;99465.21;1677329;84;21302;-84
2021/12/09 03:06:45;;;;;;;17.73;13.58;;;;;;;8.08;100.00;99481.17;1692339;85;21853;-84
2021/12/09 03:09:54;;;;;;;19.70;12.18;;;;;;;8.14;100.00;99478.59;1701761;84;21346;-83
2021/12/09 03:13:01;;;;;;;14.58;9.18;;;;;;;8.20;100.00;99481.95;1692127;85;21299;-83
2021/12/09 03:16:07;;;;;;;15.80;9.93;;;;;;;8.28;100.00;99483.77;1701738;84;21347;-84
2021/12/09 03:19:15;;;;;;;17.80;9.85;;;;;;;8.37;100.00;99493.59;1668258;85;21718;-84
2021/12/09 03:22:22;;;;;;;14.53;9.73;;;;;;;8.45;100.00;99500.86;1701679;84;21355;-85
2021/12/09 03:25:28;;;;;;;20.65;12.35;;;;;;;8.50;100.00;99498.95;1674330;85;21338;-83
2021/12/09 03:28:33;;;;;;;27.30;12.13;;;;;;;8.53;100.00;99508.98;1674217;84;21283;-84
2021/12/09 03:31:39;;;;;;;21.00;10.48;;;;;;;8.56;100.00;99514.08;1701861;84;21840;-83
2021/12/09 03:34:46;;;;;;;22.07;10.82;;;;;;;8.57;100.00;99521.22;1692395;85;21283;-84
2021/12/09 03:37:50;;;;;;;20.72;9.13;;;;;;;8.59;100.00;99521.03;1701701;84;21204;-84
2021/12/09 03:40:56;;;;;;;19.30;8.53;;;;;;;8.63;100.00;99523.73;1701766;84;21168;-85
2021/12/09 03:44:02;;;;;;;20.77;9.13;;;;;;;8.65;100.00;99528.47;1692067;85;21307;-85
2021/12/09 03:47:09;;;;;;;18.48;8.60;;;;;;;8.67;100.00;99527.78;1701782;84;21315;-83
2021/12/09 03:50:17;;;;;;;20.95;9.63;;;;;;;8.64;100.00;99535.80;1692237;85;21218;-84
2021/12/09 03:53:22;;;;;;;20.50;10.58;;;;;;;8.62;100.00;99536.52;1665145;84;21322;-84
2021/12/09 03:56:27;;;;;;;22.87;11.55;;;;;;;8.58;100.00;99542.51;1692101;85;21312;-83
2021/12/09 03:59:32;;;;;;;20.95;9.30;;;;;;;8.55;100.00;99534.16;1700902;84;22015;-85
2021/12/09 04:02:38;;;;;;;25.12;10.48;;;;;;;8.54;100.00;99546.11;1700815;84;21239;-85
2021/12/09 04:05:44;;;;;;;11.97;8.68;;;;;;;8.53;100.00;99549.87;1692004;84;21315;-84
2021/12/09 04:08:49;;;;;;;15.05;8.10;;;;;;;8.52;100.00;99549.55;1699989;84;21191;-83
2021/12/09 04:11:54;;;;;;;16.45;8.20;;;;;;;8.51;100.00;99551.06;1690622;85;21303;-84
2021/12/09 04:15:00;;;;;;;16.07;8.55;;;;;;;8.43;100.00;99546.55;1700721;84;21255;-84
2021/12/09 04:18:06;;;;;;;17.02;8.00;;;;;;;8.39;100.00;99547.41;1691077;85;21897;-84
2021/12/09 04:21:12;;;;;;;13.70;7.22;;;;;;;8.33;100.00;99554.92;1700860;84;21299;-85
2021/12/09 04:24:20;;;;;;;16.37;7.75;;;;;;;8.25;100.00;99567.22;1691730;85;21338;-84
2021/12/09 04:27:25;;;;;;;12.25;6.37;;;;;;;8.16;100.00;99566.42;1700817;84;21322;-85
2021/12/09 04:30:32;;;;;;;14.55;6.55;;;;;;;8.14;100.00;99570.36;1664789;85;21318;-84
2021/12/09 04:33:38;;;;;;;9.93;5.65;;;;;;;8.08;100.00;99577.34;1701585;84;21307;-85
2021/12/09 04:36:44;;;;;;;11.88;5.70;;;;;;;8.04;100.00;99584.17;1691841;85;21334;-84
2021/12/09 04:39:50;;;;;;;11.33;5.87;;;;;;;7.98;100.00;99588.13;1701478;84;21287;-84
2021/12/09 04:42:56;;;;;;;11.53;5.50;;;;;;;7.97;100.00;99587.29;1690929;85;21326;-85
2021/12/09 04:46:02;;;;;;;10.95;6.40;;;;;;;7.99;100.00;99592.55;1700302;84;21363;-84
2021/12/09 04:49:09;;;;;;;14.10;6.45;;;;;;;7.94;100.00;99595.28;1692025;85;21220;-84
2021/12/09 04:52:14;;;;;;;14.35;5.90;;;;;;;7.93;100.00;99591.38;1700268;84;21179;-85
2021/12/09 04:55:19;;;;;;;12.05;5.10;;;;;;;7.93;100.00;99604.48;1692048;85;21256;-83
2021/12/09 04:58:25;;;;;;;7.58;4.28;;;;;;;7.93;100.00;99600.91;1634353;86;21225;-85
2021/12/09 05:01:32;;;;;;;8.23;4.47;;;;;;;7.91;100.00;99606.55;1699930;84;21227;-83
2021/12/09 05:04:38;;;;;;;8.63;5.03;;;;;;;7.87;100.00;99606.56;1691817;85;21825;-83
2021/12/09 05:07:44;;;;;;;6.28;3.70;;;;;;;7.88;100.00;99608.77;1700570;84;21748;-84
2021/12/09 05:13:58;;;;;;;6.62;4.42;;;;;;;7.90;100.00;99617.11;1677157;84;21734;-84
2021/12/09 05:17:04;;;;;;;5.25;3.85;;;;;;;7.89;100.00;99625.44;1692109;85;21335;-84
2021/12/09 05:20:11;;;;;;;7.22;3.90;;;;;;;7.85;100.00;99624.93;1699868;84;21896;-83
2021/12/09 05:23:10;;;;;;;6.15;3.98;;;;;;;7.84;100.00;99627.32;1671846;85;21312;-84
2021/12/09 05:26:18;;;;;;;6.17;3.90;;;;;;;7.83;100.00;99627.51;1655703;85;21173;-84
2021/12/09 05:29:30;;;;;;;6.15;3.08;;;;;;;7.84;100.00;99631.41;1680581;85;21219;-84
2021/12/09 05:32:34;;;;;;;5.35;3.62;;;;;;;7.86;100.00;99633.46;1680269;85;21544;-83
2021/12/09 05:35:41;;;;;;;7.50;3.42;;;;;;;7.84;100.00;99645.02;1664929;84;21284;-84
2021/12/09 05:38:46;;;;;;;4.95;2.85;;;;;;;7.82;100.00;99647.59;1679135;85;21301;-85
2021/12/09 05:41:52;;;;;;;4.62;2.85;;;;;;;7.76;100.00;99650.48;1680027;85;21343;-84
2021/12/09 05:44:59;;;;;;;4.20;2.50;;;;;;;7.74;100.00;99657.98;1678002;85;21275;-85
2021/12/09 05:48:07;;;;;;;3.77;2.05;;;;;;;7.71;100.00;99665.13;1673060;85;21352;-84
2021/12/09 05:51:13;;;;;;;3.17;1.92;;;;;;;7.70;100.00;99668.88;1657030;83;21205;-85
2021/12/09 05:54:19;;;;;;;6.03;2.60;;;;;;;7.71;100.00;99681.46;1658584;84;21323;-85
2021/12/09 05:57:25;;;;;;;3.17;2.50;;;;;;;7.75;100.00;99686.90;1673883;84;21745;-85
2021/12/09 06:00:35;;;;;;;3.90;2.40;;;;;;;7.77;100.00;99694.41;1674934;85;21460;-82
2021/12/09 06:03:41;;;;;;;3.62;2.50;;;;;;;7.79;100.00;99686.89;1671655;85;21420;-83
2021/12/09 06:06:47;;;;;;;1.82;1.52;;;;;;;7.82;100.00;99697.45;1652554;83;21513;-85
2021/12/09 06:09:52;;;;;;;4.12;2.33;;;;;;;7.82;100.00;99700.17;1662598;84;21881;-84
2021/12/09 06:13:00;;;;;;;2.72;1.70;;;;;;;7.77;100.00;99703.94;1673266;83;21747;-85
2021/12/09 06:16:06;;;;;;;1.80;1.50;;;;;;;7.79;100.00;99714.13;1674275;85;21660;-85
2021/12/09 06:19:12;;;;;;;1.70;1.40;;;;;;;7.80;100.00;99718.54;1677711;84;21177;-85
2021/12/09 06:22:18;;;;;;;4.35;1.70;;;;;;;7.77;100.00;99720.78;1692157;84;21697;-85
2021/12/09 06:25:27;;;;;;;3.02;1.95;;;;;;;7.75;100.00;99725.02;1664842;83;21193;-84
2021/12/09 06:28:33;;;;;;;2.25;1.90;;;;;;;7.73;100.00;99723.51;1664545;85;21292;-85
2021/12/09 06:31:39;;;;;;;2.25;1.62;;;;;;;7.64;100.00;99730.31;1647674;84;21214;-85
2021/12/09 06:34:46;;;;;;;3.20;1.62;;;;;;;7.59;100.00;99728.62;1672343;85;21694;-82
2021/12/09 06:37:52;;;;;;;2.98;1.90;;;;;;;7.57;100.00;99733.87;1691191;82;22216;-83
2021/12/09 06:40:58;;;;;;;4.72;1.42;;;;;;;7.55;100.00;99740.02;1663907;85;21575;-85
2021/12/09 06:44:03;;;;;;;3.65;1.87;;;;;;;7.54;100.00;99741.05;1668673;83;21219;-82
2021/12/09 06:47:08;;;;;;;3.25;1.37;;;;;;;7.55;100.00;99746.30;1661467;83;21264;-82
2021/12/09 06:50:15;;;;;;;2.80;1.65;;;;;;;7.54;100.00;99748.70;1670715;84;21609;-83
2021/12/09 06:53:31;;;;;;;2.00;1.77;;;;;;;7.57;100.00;99748.33;1671271;83;21318;-85
2021/12/09 06:56:36;;;;;;;4.10;1.65;;;;;;;7.66;100.00;99751.39;1666236;83;21258;-83
2021/12/09 06:59:44;;;;;;;1.90;1.60;;;;;;;7.72;100.00;99755.84;1674778;85;21172;-82
2021/12/09 07:02:51;;;;;;;3.10;1.45;;;;;;;7.71;100.00;99759.05;1669307;84;21208;-85
2021/12/09 07:06:01;;;;;;;3.05;1.60;;;;;;;7.69;100.00;99757.87;1666587;83;21196;-82
2021/12/09 07:09:06;;;;;;;1.72;1.62;;;;;;;7.65;100.00;99766.55;1674557;83;21223;-86
2021/12/09 07:12:13;;;;;;;3.27;2.00;;;;;;;7.60;100.00;99764.84;1697645;82;21792;-85
2021/12/09 07:15:23;;;;;;;2.62;1.50;;;;;;;7.57;100.00;99763.81;1699592;82;21188;-86
2021/12/09 07:18:41;;;;;;;3.00;1.47;;;;;;;7.55;100.00;99772.16;1683374;82;22181;-84
2021/12/09 07:22:06;;;;;;;1.32;1.20;;;;;;;7.54;100.00;99775.06;1678783;83;21893;-87
2021/12/09 07:25:20;;;;;;;2.00;1.30;;;;;;;7.51;100.00;99783.04;1695986;82;21322;-86
2021/12/09 07:28:31;;;;;;;1.75;1.40;;;;;;;7.51;100.00;99783.04;1699053;82;21907;-86
2021/12/09 07:31:49;;;;;;;4.30;2.10;;;;;;;7.52;100.00;99787.97;1667986;83;21264;-84
2021/12/09 07:35:19;;;;;;;4.85;1.90;;;;;;;7.46;100.00;99799.03;1618314;86;21593;-86
2021/12/09 07:38:30;;;;;;;1.70;1.60;;;;;;;7.43;100.00;99795.27;1579955;87;21711;-87
2021/12/09 07:41:38;;;;;;;3.08;2.40;;;;;;;7.42;100.00;99805.83;1603128;87;21722;-85
2021/12/09 07:44:43;;;;;;;5.03;2.60;;;;;;;7.39;100.00;99809.75;1605005;87;21811;-83
2021/12/09 07:47:49;;;;;;;4.78;2.60;;;;;;;7.38;100.00;99810.74;1615556;86;21176;-84
2021/12/09 07:50:54;;;;;;;4.97;3.27;;;;;;;7.38;100.00;99809.89;1602005;87;21320;-86
2021/12/09 07:54:02;;;;;;;5.65;3.67;;;;;;;7.39;100.00;99816.55;1600933;87;21540;-84
2021/12/09 07:57:07;;;;;;;5.47;3.42;;;;;;;7.41;100.00;99820.45;1603676;87;21848;-87
2021/12/09 08:00:14;;;;;;;4.20;3.22;;;;;;;7.46;100.00;99822.67;1603784;87;21521;-84
2021/12/09 08:03:20;;;;;;;4.28;3.02;;;;;;;7.45;100.00;99820.47;1603352;87;21211;-85
2021/12/09 08:06:25;;;;;;;3.80;2.98;;;;;;;7.43;100.00;99830.64;1600690;87;21385;-84
2021/12/09 08:09:30;;;;;;;3.83;3.27;;;;;;;7.39;100.00;99836.95;1619355;86;21853;-84
2021/12/09 08:12:36;;;;;;;5.50;3.83;;;;;;;7.42;100.00;99839.32;1609079;83;21230;-85
2021/12/09 08:15:49;;;;;;;6.60;3.80;;;;;;;7.42;100.00;99834.39;1676367;83;21934;-82
2021/12/09 08:18:57;;;;;;;4.30;2.77;;;;;;;7.40;100.00;99839.16;1674709;83;21208;-84
2021/12/09 08:22:04;;;;;;;6.83;4.55;;;;;;;7.40;100.00;99842.73;1679467;83;21263;-86
2021/12/09 08:25:33;;;;;;;5.50;3.40;;;;;;;7.38;100.00;99847.98;1668891;83;21215;-87
2021/12/09 08:28:43;;;;;;;4.58;2.80;;;;;;;7.39;100.00;99846.48;1677674;83;22209;-83
2021/12/09 08:31:51;;;;;;;4.50;2.83;;;;;;;7.45;100.00;99846.31;1680191;83;21244;-81
2021/12/09 08:34:56;;;;;;;5.58;3.05;;;;;;;7.49;100.00;99840.88;1682436;83;21290;-81
2021/12/09 08:38:01;;;;;;;5.33;3.00;;;;;;;7.52;100.00;99844.61;1674700;83;21220;-80
2021/12/09 08:41:10;;;;;;;;;;;;;;;7.51;100.00;99842.91;1683468;83;21526;-80
2021/12/09 08:44:15;;;;;;;5.45;3.45;;;;;;;7.48;100.00;99845.99;1680086;83;20237;-80
2021/12/09 08:47:21;;;;;;;10.75;3.25;;;;;;;7.48;100.00;99843.75;1681674;83;21957;-81
2021/12/09 08:50:33;;;;;;;4.33;2.70;;;;;;;7.52;100.00;99843.77;1677904;83;21863;-83
2021/12/09 08:53:54;;;;;;;4.45;2.70;;;;;;;7.55;100.00;99843.44;1662602;84;21667;-83
2021/12/09 08:57:13;;;;;;;5.12;3.00;;;;;;;7.57;100.00;99841.38;1665395;83;21590;-83
2021/12/09 09:00:21;;;;;;;3.92;3.08;;;;;;;7.57;100.00;99838.15;1680283;84;21409;-84
2021/12/09 09:03:27;;;;;;;6.60;4.08;;;;;;;7.58;100.00;99836.30;1676351;84;21314;-84
2021/12/09 09:06:35;;;;;;;7.85;3.25;;;;;;;7.61;100.00;99834.08;1675833;83;21252;-83
2021/12/09 09:09:41;;;;;;;8.25;3.02;;;;;;;7.67;100.00;99836.66;1679335;84;21881;-84
2021/12/09 09:12:48;;;;;;;3.72;2.95;;;;;;;7.67;100.00;99841.59;1671317;83;21777;-85
2021/12/09 09:15:53;;;;;;;3.98;2.60;;;;;;;7.67;100.00;99838.87;1675521;83;21239;-83
2021/12/09 09:19:05;;;;;;;4.37;3.15;;;;;;;7.71;100.00;99836.63;1674953;83;21202;-83
2021/12/09 09:22:16;;;;;;;6.78;3.65;;;;;;;7.71;100.00;99834.42;1676496;83;21634;-85
2021/12/09 09:25:29;;;;;;;3.58;2.37;;;;;;;7.75;100.00;99831.70;1665578;83;21211;-86
2021/12/09 09:28:34;;;;;;;5.30;2.70;;;;;;;7.76;100.00;99837.48;1678499;83;22896;-83
2021/12/09 09:31:42;;;;;;;3.17;2.37;;;;;;;7.76;100.00;99838.84;1677644;83;21310;-85
2021/12/09 09:34:49;;;;;;;3.50;2.12;;;;;;;7.77;100.00;99841.42;1675734;83;22374;-85
2021/12/09 09:37:54;;;;;;;3.30;2.42;;;;;;;7.79;100.00;99838.00;1674086;83;21688;-83
2021/12/09 09:41:14;;;;;;;3.40;2.25;;;;;;;7.80;100.00;99836.98;1677143;83;22154;-82
2021/12/09 09:44:21;;;;;;;3.90;2.40;;;;;;;7.86;100.00;99836.83;1676272;83;21669;-83
2021/12/09 09:47:25;;;;;;;3.00;1.80;;;;;;;7.90;100.00;99840.41;1676905;83;22555;-82
2021/12/09 09:50:30;;;;;;;4.42;2.42;;;;;;;7.92;100.00;99838.86;1676093;83;21314;-83
2021/12/09 09:53:41;;;;;;;9.08;2.98;;;;;;;7.93;100.00;99837.32;1673579;83;21195;-82
2021/12/09 09:56:49;;;;;;;12.03;2.50;;;;;;;7.98;100.00;99841.41;1674565;83;21189;-83
2021/12/09 09:59:55;;;;;;;2.75;1.62;;;;;;;7.98;100.00;99839.53;1671754;83;21646;-83
2021/12/09 10:03:10;;;;;;;2.72;1.55;;;;;;;7.96;100.00;99843.47;1675173;83;21330;-82
2021/12/09 10:06:17;;;;;;;2.22;1.40;;;;;;;7.93;100.00;99837.32;1671735;83;22189;-84
2021/12/09 10:09:25;;;;;;;2.55;1.77;;;;;;;7.92;100.00;99839.71;1672149;83;21248;-86
2021/12/09 10:12:32;;;;;;;4.85;2.05;;;;;;;7.90;100.00;99843.13;1675467;83;21204;-84
2021/12/09 10:15:57;;;;;;;18.55;3.85;;;;;;;7.88;100.00;99840.22;1675745;83;21835;-87
2021/12/09 10:19:04;;;;;;;22.07;7.08;;;;;;;7.86;100.00;99840.41;1678292;83;21275;-88
2021/12/09 10:22:21;;;;;;;13.70;6.47;;;;;;;7.87;100.00;99839.38;1673620;83;21184;-86
2021/12/09 10:25:30;;;;;;;8.28;4.60;;;;;;;7.92;100.00;99832.91;1680554;83;21306;-83
2021/12/09 10:28:37;;;;;;;7.53;3.22;;;;;;;8.00;100.00;99837.98;1675844;83;21244;-82
2021/12/09 10:31:57;;;;;;;5.85;3.58;;;;;;;7.97;100.00;99841.08;1676584;83;21749;-82
2021/12/09 10:35:01;;;;;;;7.42;3.27;;;;;;;7.90;100.00;99839.05;1677540;83;21176;-80
2021/12/09 10:38:08;;;;;;;6.85;3.30;;;;;;;7.81;100.00;99844.15;1678298;83;21214;-81
2021/12/09 10:41:13;;;;;;;8.35;2.80;;;;;;;7.81;100.00;99848.23;1666015;83;21601;-80
2021/12/09 10:44:20;;;;;;;5.62;2.50;;;;;;;7.82;100.00;99840.40;1663602;83;21531;-81
2021/12/09 10:47:57;;;;;;;7.30;2.55;;;;;;;7.89;100.00;99844.64;1680652;83;21238;-82
2021/12/09 10:51:44;;;;;;;5.42;2.30;;;;;;;8.01;100.00;99839.20;1826686;76;22495;-82
2021/12/09 10:54:50;;;;;;;4.25;2.15;;;;;;;7.98;100.00;99846.86;1801301;78;21321;-82
2021/12/09 10:58:16;;;;;;;4.08;2.17;;;;;;;7.93;100.00;99849.58;1763249;78;21287;-82
2021/12/09 11:01:30;;;;;;;4.95;2.45;;;;;;;7.92;100.00;99851.97;1741859;81;21275;-82
2021/12/09 11:04:42;;;;;;;2.67;1.80;;;;;;;7.95;100.00;99853.48;1703828;81;21321;-82
2021/12/09 11:07:51;;;;;;;3.17;2.10;;;;;;;7.96;100.00;99857.09;1722037;81;21290;-83
2021/12/09 11:11:07;;;;;;;6.80;2.30;;;;;;;7.94;100.00;99860.80;1738770;81;22043;-83
2021/12/09 11:14:28;;;;;;;4.25;2.20;;;;;;;7.89;100.00;99869.15;1737343;81;21215;-83
2021/12/09 11:17:47;;;;;;;5.05;2.62;;;;;;;7.85;100.00;99871.86;1734983;80;21346;-82
2021/12/09 11:20:59;;;;;;;4.45;2.17;;;;;;;7.80;100.00;99866.92;1720150;80;21314;-83
2021/12/09 11:24:21;;;;;;;4.10;2.35;;;;;;;7.79;100.00;99868.47;1711327;80;21244;-82
2021/12/09 11:27:43;;;;;;;4.12;2.65;;;;;;;7.77;100.00;99874.09;1737631;80;21227;-82
2021/12/09 11:31:17;;;;;;;3.55;2.35;;;;;;;7.75;100.00;99875.27;1735279;80;21211;-81
2021/12/09 11:34:26;;;;;;;4.62;3.17;;;;;;;7.79;100.00;99880.72;1737789;80;21573;-81
2021/12/09 11:40:51;;;;;;;4.62;3.35;;;;;;;7.85;100.00;99886.33;1738199;80;21227;-82
2021/12/09 11:44:03;;;;;;;11.25;3.70;;;;;;;7.84;100.00;99892.80;1736439;80;22334;-81
2021/12/09 11:47:08;;;;;;;7.37;3.65;;;;;;;7.85;100.00;99897.73;1736612;80;21270;-81
2021/12/09 11:50:22;;;;;;;7.45;4.15;;;;;;;7.84;100.00;99901.48;1738965;80;21318;-82
2021/12/09 11:53:34;;;;;;;4.50;3.80;;;;;;;7.80;100.00;99904.20;1782893;78;21906;-85
2021/12/09 12:07:18;;;;;;;5.37;3.55;;;;;;;7.71;100.00;99915.58;1730165;78;21188;-82
2021/12/09 12:13:57;;;;;;;5.55;3.37;;;;;;;7.72;100.00;99921.91;1779619;78;21654;-82
2021/12/09 12:17:10;;;;;;;10.95;3.42;;;;;;;7.76;100.00;99927.33;1784215;78;21184;-83
2021/12/09 12:27:08;;;;;;;9.45;5.10;;;;;;;7.87;100.00;99933.32;1784544;78;21291;-83
2021/12/09 12:33:35;;;;;;;5.95;3.27;;;;;;;8.05;100.00;99947.31;1783339;79;21133;-84
2021/12/09 12:40:16;;;;;;;6.17;4.00;;;;;;;8.19;100.00;99954.81;1784460;79;21251;-83
2021/12/09 12:43:44;;;;;;;7.03;3.92;;;;;;;8.13;100.00;99962.28;1780531;78;21275;-83
2021/12/09 12:46:50;;;;;;;8.05;4.40;;;;;;;8.10;100.00;99970.29;1729215;81;21269;-84
2021/12/09 12:49:49;;;;;;;8.55;5.15;;;;;;;8.11;100.00;99958.88;1782672;78;21145;-83
2021/12/09 12:52:57;;;;;;;6.30;4.37;;;;;;;8.07;100.00;99967.89;1749400;80;21282;-83
2021/12/09 12:56:35;;;;;;;7.22;4.65;;;;;;;8.05;100.00;99975.91;1753187;80;21244;-84
2021/12/09 12:59:43;;;;;;;7.10;3.90;;;;;;;8.07;100.00;99972.49;1760614;80;22246;-84
2021/12/09 13:06:14;;;;;;;9.68;5.72;;;;;;;8.05;100.00;99971.83;1754107;80;21307;-83
2021/12/09 13:09:51;;;;;;;8.33;5.92;;;;;;;8.01;100.00;99974.53;1753980;80;21143;-83
2021/12/09 13:12:56;;;;;;;7.78;4.33;;;;;;;7.99;100.00;99986.09;1754620;80;21280;-83
2021/12/09 13:19:42;;;;;;;5.05;3.33;;;;;;;7.96;100.00;100000.91;1759868;80;21149;-84
2021/12/09 13:22:45;;;;;;;8.65;5.47;;;;;;;7.98;100.00;99999.38;1753866;80;21182;-83
2021/12/09 13:26:25;;;;;;;5.75;4.12;;;;;;;7.93;100.00;100006.17;1753286;80;21344;-84
2021/12/09 13:36:48;;;;;;;5.87;3.35;;;;;;;7.98;100.00;100027.97;1754019;80;21252;-84
2021/12/09 13:46:27;;;;;;;5.50;4.17;;;;;;;7.92;100.00;100041.75;1754607;80;21194;-84
2021/12/09 13:49:38;;;;;;;5.40;4.37;;;;;;;7.92;100.00;100056.73;1760613;80;21268;-83
2021/12/09 13:55:48;;;;;;;11.05;6.50;;;;;;;7.90;100.00;100058.75;1779581;79;21192;-83
2021/12/09 13:58:49;;;;;;;8.03;5.28;;;;;;;7.91;100.00;100061.84;1771982;79;21307;-84
2021/12/09 14:01:43;;;;;;;9.35;6.10;;;;;;;7.92;100.00;100064.39;1773659;79;21316;-84
2021/12/09 14:04:36;;;;;;;10.82;6.80;;;;;;;7.87;100.00;100061.31;1782216;79;21809;-83
2021/12/09 14:07:43;;;;;;;10.60;6.87;;;;;;;7.85;100.00;100078.30;1784140;78;21346;-83
2021/12/09 14:10:48;;;;;;;10.30;6.87;;;;;;;7.80;100.00;100071.65;1782182;79;22130;-83
2021/12/09 14:13:57;;;;;;;12.37;7.20;;;;;;;7.73;100.00;100082.87;1782995;79;22519;-84
2021/12/09 14:17:03;;;;;;;11.65;7.67;;;;;;;7.67;100.00;100081.14;1788293;78;21272;-84
2021/12/09 14:20:10;;;;;;;13.88;8.75;;;;;;;7.66;100.00;100081.29;1778264;79;21201;-84
2021/12/09 14:23:15;;;;;;;13.68;9.13;;;;;;;7.64;100.00;100084.70;1777822;79;21225;-84
2021/12/09 14:26:23;;;;;;;11.75;8.05;;;;;;;7.65;100.00;100092.69;1784797;79;21208;-84
2021/12/09 14:29:29;;;;;;;14.07;9.15;;;;;;;7.66;100.00;100093.54;1795505;79;21141;-84
2021/12/09 14:32:36;;;;;;;10.25;7.53;;;;;;;7.68;100.00;100107.86;1785509;79;21201;-83
2021/12/09 14:35:52;;;;;;;13.28;8.95;;;;;;;7.69;100.00;100102.75;1775014;79;21581;-84
2021/12/09 14:38:55;;;;;;;17.17;10.13;;;;;;;7.62;100.00;100105.28;1761291;79;66599;-82
2021/12/09 14:42:24;;;;;;;15.15;8.93;;;;;;;7.58;100.00;100109.34;1758518;79;21346;-83
2021/12/09 14:45:32;;;;;;;11.53;8.75;;;;;;;7.60;100.00;100106.45;1738464;82;21308;-82
2021/12/09 14:48:50;;;;;;;13.58;9.05;;;;;;;7.57;100.00;100104.89;1738692;82;21292;-82
2021/12/09 14:52:01;;;;;;;13.00;8.88;;;;;;;7.52;100.00;100105.03;1739168;81;21292;-82
2021/12/09 14:55:29;;;;;;;12.37;8.53;;;;;;;7.47;100.00;100109.59;1740283;82;21276;-82
2021/12/09 14:58:39;;;;;;;13.62;8.80;;;;;;;7.48;100.00;100111.33;1741136;82;21805;-82
2021/12/09 15:01:41;;;;;;;12.33;7.72;;;;;;;7.52;100.00;100120.85;1728524;82;21240;-82
2021/12/09 15:04:52;;;;;;;12.98;9.65;;;;;;;7.59;100.00;100122.44;1741003;82;21308;-82
2021/12/09 15:08:03;;;;;;;13.75;9.20;;;;;;;7.59;100.00;100130.61;1740823;82;21205;-82
2021/12/09 15:11:08;;;;;;;13.95;9.65;;;;;;;7.58;100.00;100127.55;1741033;82;21141;-82
2021/12/09 15:14:15;;;;;;;18.75;10.98;;;;;;;7.58;100.00;100131.12;1741138;82;21170;-82
2021/12/09 15:17:27;;;;;;;19.90;12.15;;;;;;;7.53;100.00;100129.39;1727333;82;21311;-82
2021/12/09 15:20:49;;;;;;;17.92;11.43;;;;;;;7.50;100.00;100132.93;1701989;84;21291;-82
2021/12/09 15:23:55;;;;;;;17.12;11.25;;;;;;;7.43;100.00;100132.22;1693970;84;21215;-82
2021/12/09 15:27:00;;;;;;;17.55;10.70;;;;;;;7.40;100.00;100136.61;1693847;84;21803;-83
2021/12/09 15:30:04;;;;;;;19.45;11.80;;;;;;;7.38;100.00;100136.41;1693557;84;21866;-82
2021/12/09 15:33:13;;;;;;;18.98;11.70;;;;;;;7.35;100.00;100138.11;1694107;84;21887;-82
2021/12/09 15:36:31;;;;;;;15.63;10.03;;;;;;;7.34;100.00;100139.98;1703150;84;21303;-82